Time;durP1;ratioP1;P1;durP2;ratioP2;P2;SDS_P1;SDS_P2;PMS_P1;PMS_P2;Temp;Humidity;BMP_temperature;BMP_pressure;BME280_temperature;BME280_humidity;BME280_pressure;Samples;Min_cycle;Max_cycle;Signal;HPM_P1;HPM_P2
2024/01/15 00:00:56;;;;;;;15.63;7.80;;;1.30;99.90;;;;;;5053469;28;20198;-86
2024/01/15 00:03:43;;;;;;;13.03;7.87;;;1.30;99.90;;;;;;5038229;28;20372;-86
2024/01/15 00:10:09;;;;;;;13.90;7.37;;;1.30;99.90;;;;;;4899471;29;20210;-86
2024/01/15 00:13:00;;;;;;;14.10;7.33;;;1.30;99.90;;;;;;4906776;29;20227;-85
2024/01/15 00:15:53;;;;;;;13.43;7.93;;;1.20;99.90;;;;;;4909760;29;20233;-86
2024/01/15 00:18:44;;;;;;;15.27;7.73;;;1.20;99.90;;;;;;4911198;29;20263;-86
2024/01/15 00:21:40;;;;;;;15.30;8.00;;;1.20;99.90;;;;;;4908654;29;20660;-86
2024/01/15 00:24:28;;;;;;;13.57;8.23;;;1.20;99.90;;;;;;4899441;29;20227;-86
2024/01/15 00:27:16;;;;;;;14.17;8.30;;;1.20;99.90;;;;;;4901461;29;20224;-85
2024/01/15 00:30:04;;;;;;;15.03;8.20;;;1.20;99.90;;;;;;4903943;29;20253;-86
2024/01/15 00:32:55;;;;;;;14.00;8.73;;;1.20;99.90;;;;;;4901202;29;20216;-85
2024/01/15 00:35:43;;;;;;;13.80;8.00;;;1.20;99.90;;;;;;4909357;29;20235;-85
2024/01/15 00:38:38;;;;;;;14.40;8.23;;;1.20;99.90;;;;;;4908531;29;20339;-85
2024/01/15 00:41:27;;;;;;;13.67;8.37;;;1.10;99.90;;;;;;4906892;29;20554;-86
2024/01/15 00:44:15;;;;;;;15.63;8.60;;;1.30;99.90;;;;;;4908666;29;20303;-85
2024/01/15 00:47:04;;;;;;;15.83;8.80;;;1.20;99.90;;;;;;5002063;28;20225;-85
2024/01/15 00:49:52;;;;;;;17.33;9.40;;;1.20;99.90;;;;;;5067435;28;20272;-87
2024/01/15 00:52:43;;;;;;;18.03;9.43;;;1.10;99.90;;;;;;5065056;28;20229;-87
2024/01/15 00:55:36;;;;;;;16.93;9.20;;;1.10;99.90;;;;;;5048783;28;20198;-86
2024/01/15 00:58:27;;;;;;;15.83;8.90;;;1.10;99.90;;;;;;5043577;28;20655;-87
2024/01/15 01:01:15;;;;;;;16.60;8.77;;;1.00;99.90;;;;;;5045718;28;20257;-88
2024/01/15 01:04:05;;;;;;;18.50;9.93;;;1.00;99.90;;;;;;5067876;28;20226;-87
2024/01/15 01:06:53;;;;;;;16.93;9.73;;;1.00;99.90;;;;;;5066476;28;20222;-87
2024/01/15 01:09:41;;;;;;;17.23;9.37;;;1.10;99.90;;;;;;5063665;28;20224;-86
2024/01/15 01:12:34;;;;;;;16.87;9.70;;;1.00;99.90;;;;;;5070800;28;20245;-87
2024/01/15 01:15:24;;;;;;;20.67;10.53;;;0.90;99.90;;;;;;5068454;28;20201;-87
2024/01/15 01:18:14;;;;;;;21.00;10.73;;;0.90;99.90;;;;;;5074474;28;20187;-87
2024/01/15 01:21:04;;;;;;;18.97;10.13;;;0.90;99.90;;;;;;5059005;28;20240;-87
2024/01/15 01:23:52;;;;;;;22.00;11.27;;;0.80;99.90;;;;;;5061956;28;20663;-86
2024/01/15 01:26:49;;;;;;;20.80;10.87;;;0.80;99.90;;;;;;5053790;28;20732;-86
2024/01/15 01:29:46;;;;;;;19.30;10.93;;;0.90;99.90;;;;;;5039118;28;20313;-88
2024/01/15 01:32:36;;;;;;;20.80;10.90;;;0.80;99.90;;;;;;5050294;28;20605;-87
2024/01/15 01:35:26;;;;;;;21.23;11.23;;;0.90;99.90;;;;;;5038490;28;20593;-87
2024/01/15 01:38:36;;;;;;;21.77;11.63;;;0.80;99.90;;;;;;5042770;28;20194;-86
2024/01/15 01:41:34;;;;;;;24.80;12.43;;;0.80;99.90;;;;;;5053771;28;20241;-88
2024/01/15 01:44:27;;;;;;;24.13;12.37;;;0.80;99.90;;;;;;5036346;28;20670;-86
2024/01/15 01:47:16;;;;;;;24.03;12.60;;;0.90;99.90;;;;;;5040989;28;20194;-87
2024/01/15 01:50:08;;;;;;;22.70;12.37;;;0.90;99.90;;;;;;5040491;28;20693;-87
2024/01/15 01:53:04;;;;;;;23.63;12.67;;;0.90;99.90;;;;;;5045505;28;20228;-86
2024/01/15 01:55:56;;;;;;;21.97;11.97;;;0.90;99.90;;;;;;5065099;28;20193;-86
2024/01/15 01:58:52;;;;;;;23.47;12.57;;;0.90;99.90;;;;;;5045317;28;20209;-86
2024/01/15 02:01:57;;;;;;;24.87;12.20;;;0.90;99.90;;;;;;5046485;28;20190;-86
2024/01/15 02:04:49;;;;;;;20.57;11.63;;;0.90;99.90;;;;;;5053487;28;20365;-87
2024/01/15 02:07:36;;;;;;;23.30;12.07;;;0.90;99.90;;;;;;5038429;28;20280;-87
2024/01/15 02:10:24;;;;;;;21.27;11.80;;;1.00;99.90;;;;;;5037198;28;20554;-88
2024/01/15 02:13:24;;;;;;;23.30;11.93;;;0.90;99.90;;;;;;5053437;28;20199;-87
2024/01/15 02:16:27;;;;;;;21.90;11.50;;;1.00;99.90;;;;;;5037129;28;20228;-87
2024/01/15 02:19:16;;;;;;;21.80;12.20;;;1.00;99.90;;;;;;5037308;28;20203;-88
2024/01/15 02:22:05;;;;;;;20.63;11.43;;;1.00;99.90;;;;;;5054556;28;20191;-86
2024/01/15 02:24:54;;;;;;;22.90;12.10;;;1.00;99.90;;;;;;5054402;28;20654;-87
2024/01/15 02:27:43;;;;;;;21.67;11.77;;;1.00;99.90;;;;;;5040144;28;20712;-87
2024/01/15 02:30:31;;;;;;;20.70;10.80;;;1.10;99.90;;;;;;5054369;28;20195;-86
2024/01/15 02:33:19;;;;;;;19.77;10.40;;;1.00;99.90;;;;;;5054179;28;20187;-88
2024/01/15 02:36:07;;;;;;;19.47;10.77;;;1.00;99.90;;;;;;5054850;28;20229;-87
2024/01/15 02:38:54;;;;;;;21.47;10.97;;;0.90;99.90;;;;;;5040030;28;20198;-88
2024/01/15 02:41:46;;;;;;;19.70;10.50;;;1.10;99.90;;;;;;5054619;28;20215;-87
2024/01/15 02:44:39;;;;;;;21.23;11.37;;;1.00;99.90;;;;;;5042020;28;20204;-88
2024/01/15 02:47:27;;;;;;;19.67;11.20;;;0.90;99.90;;;;;;5054731;28;20196;-87
2024/01/15 02:50:14;;;;;;;20.67;11.17;;;1.00;99.90;;;;;;5055311;28;20200;-88
2024/01/15 02:53:02;;;;;;;18.87;10.40;;;1.00;99.90;;;;;;5054322;28;20206;-87
2024/01/15 02:55:59;;;;;;;22.30;10.93;;;1.00;99.90;;;;;;5054461;28;20285;-88
2024/01/15 02:58:46;;;;;;;19.13;10.40;;;1.00;99.90;;;;;;5038940;28;20195;-87
2024/01/15 03:01:33;;;;;;;20.07;10.90;;;1.00;99.90;;;;;;5053361;28;20217;-88
2024/01/15 03:04:21;;;;;;;19.80;10.60;;;1.00;99.90;;;;;;5053572;28;20230;-87
2024/01/15 03:07:19;;;;;;;19.47;10.43;;;0.90;99.90;;;;;;5041100;28;20187;-86
2024/01/15 03:10:09;;;;;;;20.80;10.77;;;0.90;99.90;;;;;;5053568;28;20650;-86
2024/01/15 03:12:57;;;;;;;19.97;11.03;;;0.90;99.90;;;;;;5054298;28;20223;-86
2024/01/15 03:15:45;;;;;;;20.87;10.80;;;0.90;99.90;;;;;;5039874;28;20205;-86
2024/01/15 03:18:32;;;;;;;22.80;12.20;;;0.90;99.90;;;;;;5039843;28;20532;-86
2024/01/15 03:21:20;;;;;;;19.83;10.07;;;0.90;99.90;;;;;;5053389;28;20191;-87
2024/01/15 03:24:10;;;;;;;23.73;11.23;;;0.90;99.90;;;;;;5039913;28;20695;-88
2024/01/15 03:27:01;;;;;;;23.03;11.63;;;0.90;99.90;;;;;;5040950;28;20218;-87
2024/01/15 03:29:49;;;;;;;22.40;12.03;;;0.90;99.90;;;;;;5041458;28;20794;-87
2024/01/15 03:32:47;;;;;;;20.10;10.50;;;0.80;99.90;;;;;;5044236;28;20673;-87
2024/01/15 03:35:34;;;;;;;21.90;11.63;;;0.80;99.90;;;;;;5044042;28;20190;-87
2024/01/15 03:38:23;;;;;;;22.20;11.40;;;0.80;99.90;;;;;;5056723;28;20199;-88
2024/01/15 03:41:10;;;;;;;23.50;11.73;;;0.70;99.90;;;;;;5044215;28;20211;-87
2024/01/15 03:43:59;;;;;;;23.33;11.50;;;0.80;99.90;;;;;;5056610;28;20220;-88
2024/01/15 03:46:46;;;;;;;22.47;11.50;;;0.70;99.90;;;;;;5053903;28;20434;-88
2024/01/15 03:49:33;;;;;;;24.30;11.60;;;0.70;99.90;;;;;;5053777;28;20202;-88
2024/01/15 03:52:21;;;;;;;22.57;11.30;;;0.80;99.90;;;;;;5039880;28;20199;-87
2024/01/15 03:55:09;;;;;;;26.50;12.40;;;0.70;99.90;;;;;;5038480;28;20202;-87
2024/01/15 03:57:58;;;;;;;24.27;12.07;;;0.70;99.90;;;;;;5053433;28;20221;-88
2024/01/15 04:00:45;;;;;;;24.03;11.30;;;0.70;99.90;;;;;;5039435;28;20220;-87
2024/01/15 04:03:33;;;;;;;23.73;11.37;;;0.70;99.90;;;;;;5053112;28;20523;-88
2024/01/15 04:06:21;;;;;;;23.53;11.40;;;0.70;99.90;;;;;;5052799;28;20195;-88
2024/01/15 04:09:09;;;;;;;24.17;12.07;;;0.70;99.90;;;;;;5053172;28;20195;-89
2024/01/15 04:11:56;;;;;;;22.80;11.50;;;0.70;99.90;;;;;;5054522;28;20220;-88
2024/01/15 04:14:44;;;;;;;20.83;10.73;;;0.70;99.90;;;;;;5038258;28;20304;-88
2024/01/15 04:17:36;;;;;;;20.63;10.80;;;0.80;99.90;;;;;;5038745;28;20674;-87
2024/01/15 04:20:31;;;;;;;23.13;10.93;;;0.70;99.90;;;;;;5038797;28;20422;-87
2024/01/15 04:23:18;;;;;;;18.73;10.67;;;0.80;99.90;;;;;;5052261;28;20337;-86
2024/01/15 04:26:06;;;;;;;23.03;10.93;;;0.80;99.90;;;;;;5052204;28;20227;-86
2024/01/15 04:28:53;;;;;;;20.27;10.47;;;0.80;99.90;;;;;;5052153;28;20614;-88
2024/01/15 04:31:40;;;;;;;21.90;10.90;;;0.70;99.90;;;;;;5052443;28;20481;-87
2024/01/15 04:34:38;;;;;;;20.27;10.17;;;0.70;99.90;;;;;;5023970;28;20280;-87
2024/01/15 04:37:26;;;;;;;18.10;10.03;;;0.80;99.90;;;;;;5053583;28;20212;-87
2024/01/15 04:40:13;;;;;;;21.60;10.37;;;0.70;99.90;;;;;;5053148;28;20225;-86
2024/01/15 04:43:13;;;;;;;18.97;10.53;;;0.80;99.90;;;;;;5039077;28;20230;-87
2024/01/15 04:46:03;;;;;;;20.17;9.97;;;0.80;99.90;;;;;;5051673;28;20195;-87
2024/01/15 04:48:50;;;;;;;17.40;9.33;;;0.80;99.90;;;;;;5040032;28;20194;-87
2024/01/15 04:51:38;;;;;;;17.80;10.10;;;0.80;99.90;;;;;;5052974;28;20549;-87
2024/01/15 04:54:26;;;;;;;17.20;9.60;;;0.80;99.90;;;;;;5051993;28;20191;-87
2024/01/15 04:57:13;;;;;;;19.43;10.10;;;0.80;99.90;;;;;;5037156;28;20218;-87
2024/01/15 05:00:00;;;;;;;20.07;9.63;;;0.80;99.90;;;;;;5051276;28;20307;-87
2024/01/15 05:02:47;;;;;;;17.33;9.20;;;0.80;99.90;;;;;;5052202;28;20659;-87
2024/01/15 05:05:41;;;;;;;19.50;9.47;;;0.90;99.90;;;;;;5036805;28;20230;-87
2024/01/15 05:08:31;;;;;;;17.70;9.53;;;0.90;99.90;;;;;;5051484;28;20270;-87
2024/01/15 05:11:18;;;;;;;17.17;9.07;;;0.80;99.90;;;;;;5039102;28;20280;-87
2024/01/15 05:14:06;;;;;;;18.27;10.13;;;0.80;99.90;;;;;;5052100;28;20191;-87
2024/01/15 05:17:11;;;;;;;17.77;9.70;;;0.80;99.90;;;;;;5051607;28;20649;-87
2024/01/15 05:20:03;;;;;;;16.37;9.47;;;0.90;99.90;;;;;;5052294;28;20260;-87
2024/01/15 05:22:50;;;;;;;18.27;9.73;;;0.90;99.90;;;;;;5038419;28;20401;-86
2024/01/15 05:25:38;;;;;;;19.17;9.43;;;0.90;99.90;;;;;;5036849;28;20189;-87
2024/01/15 05:28:25;;;;;;;19.50;9.40;;;0.90;99.90;;;;;;5051985;28;20195;-86
2024/01/15 05:31:16;;;;;;;18.90;9.63;;;0.90;99.90;;;;;;5053084;28;20198;-87
2024/01/15 05:34:03;;;;;;;16.30;9.20;;;0.90;99.90;;;;;;5038347;28;20203;-86
2024/01/15 05:37:03;;;;;;;16.33;9.30;;;1.00;99.90;;;;;;5037079;28;20553;-87
2024/01/15 05:39:51;;;;;;;17.07;9.50;;;0.90;99.90;;;;;;5051122;28;20201;-86
2024/01/15 05:42:39;;;;;;;15.50;8.73;;;0.90;99.90;;;;;;5053862;28;20649;-87
2024/01/15 05:45:27;;;;;;;20.17;8.50;;;0.90;99.90;;;;;;5038177;28;20673;-86
2024/01/15 05:48:17;;;;;;;18.43;9.13;;;1.00;99.90;;;;;;5040812;28;20304;-87
2024/01/15 05:51:06;;;;;;;15.97;8.83;;;1.00;99.90;;;;;;5040186;28;20662;-86
2024/01/15 05:53:54;;;;;;;15.67;8.27;;;1.00;99.90;;;;;;5027504;28;20670;-85
2024/01/15 05:56:52;;;;;;;15.30;8.20;;;1.00;99.90;;;;;;5056433;28;20818;-85
2024/01/15 05:59:44;;;;;;;14.23;8.20;;;1.00;99.90;;;;;;5041723;28;20195;-85
2024/01/15 06:02:34;;;;;;;17.30;9.00;;;1.00;99.90;;;;;;5044950;28;20288;-86
2024/01/15 06:05:22;;;;;;;14.80;8.33;;;1.00;99.90;;;;;;5055760;28;20239;-85
2024/01/15 06:08:09;;;;;;;15.93;8.60;;;1.00;99.90;;;;;;5056809;28;20195;-86
2024/01/15 06:11:04;;;;;;;14.37;8.37;;;1.10;99.90;;;;;;5056008;28;20561;-87
2024/01/15 06:13:52;;;;;;;15.77;8.17;;;1.00;99.90;;;;;;5056445;28;20236;-86
2024/01/15 06:16:40;;;;;;;15.43;8.47;;;1.00;99.90;;;;;;5050308;28;20201;-86
2024/01/15 06:19:31;;;;;;;13.93;8.20;;;1.10;99.90;;;;;;5065138;28;20204;-85
2024/01/15 06:22:18;;;;;;;16.27;8.73;;;1.00;99.90;;;;;;5067289;28;20212;-85
2024/01/15 06:25:15;;;;;;;16.23;8.77;;;1.10;99.90;;;;;;5066023;28;20232;-85
2024/01/15 06:28:10;;;;;;;16.93;8.53;;;1.00;99.90;;;;;;5056134;28;20320;-86
2024/01/15 06:31:05;;;;;;;15.57;8.60;;;1.00;99.90;;;;;;5042357;28;20637;-86
2024/01/15 06:33:56;;;;;;;17.40;8.70;;;1.00;99.90;;;;;;5054985;28;20211;-84
2024/01/15 06:36:59;;;;;;;18.80;8.90;;;1.10;99.90;;;;;;5041876;28;20191;-86
2024/01/15 06:39:47;;;;;;;17.37;9.50;;;1.00;99.90;;;;;;5040571;28;20198;-85
2024/01/15 06:42:37;;;;;;;19.40;9.07;;;1.10;99.90;;;;;;5054901;28;20217;-86
2024/01/15 06:45:25;;;;;;;16.30;9.07;;;1.10;99.90;;;;;;5056238;28;20195;-85
2024/01/15 06:48:16;;;;;;;17.70;8.80;;;1.10;99.90;;;;;;5040152;28;20209;-86
2024/01/15 06:51:04;;;;;;;13.83;8.23;;;1.00;99.90;;;;;;5039939;28;20203;-85
2024/01/15 06:53:58;;;;;;;15.63;8.70;;;1.10;99.90;;;;;;5054634;28;20212;-86
2024/01/15 06:56:45;;;;;;;14.80;8.37;;;1.10;99.90;;;;;;5040152;28;20575;-86
2024/01/15 06:59:35;;;;;;;15.27;8.37;;;1.10;99.90;;;;;;5039155;28;20308;-86
2024/01/15 07:02:23;;;;;;;15.23;8.17;;;1.10;99.90;;;;;;5039567;28;20198;-86
2024/01/15 07:05:11;;;;;;;13.17;8.10;;;1.10;99.90;;;;;;5054158;28;20358;-84
2024/01/15 07:07:59;;;;;;;16.67;8.40;;;1.20;99.90;;;;;;5026102;28;20208;-84
2024/01/15 07:10:49;;;;;;;13.70;7.90;;;1.10;99.90;;;;;;5053569;28;20187;-85
2024/01/15 07:13:38;;;;;;;15.50;8.60;;;1.10;99.90;;;;;;5054176;28;20195;-85
2024/01/15 07:16:25;;;;;;;15.50;8.50;;;1.10;99.90;;;;;;5054754;28;20191;-80
2024/01/15 07:19:25;;;;;;;14.60;8.23;;;1.10;99.90;;;;;;5040489;28;20277;-85
2024/01/15 07:22:13;;;;;;;14.53;8.03;;;1.10;99.90;;;;;;5039975;28;20795;-87
2024/01/15 07:25:00;;;;;;;14.30;8.13;;;1.00;99.90;;;;;;5039359;28;20219;-87
2024/01/15 07:27:48;;;;;;;14.50;8.47;;;1.20;99.90;;;;;;5039504;28;20695;-88
2024/01/15 07:30:38;;;;;;;18.20;8.77;;;1.00;99.90;;;;;;5039967;28;20196;-87
2024/01/15 07:33:27;;;;;;;15.20;8.33;;;1.00;99.90;;;;;;5038883;28;20202;-88
2024/01/15 07:36:16;;;;;;;15.17;8.03;;;0.90;99.90;;;;;;5040786;28;20274;-90
2024/01/15 07:39:04;;;;;;;15.93;9.17;;;0.80;99.90;;;;;;5053893;28;20194;-89
2024/01/15 07:41:52;;;;;;;17.80;9.40;;;0.80;99.90;;;;;;5054838;28;20214;-89
2024/01/15 07:44:40;;;;;;;17.30;9.40;;;0.80;99.90;;;;;;5053243;28;20214;-88
2024/01/15 07:47:27;;;;;;;18.33;9.37;;;0.80;99.90;;;;;;5054257;28;20249;-88
2024/01/15 07:50:15;;;;;;;15.33;9.00;;;0.70;99.90;;;;;;5054459;28;20579;-89
2024/01/15 07:53:03;;;;;;;16.37;8.73;;;0.70;99.90;;;;;;5053088;28;20640;-89
2024/01/15 07:55:50;;;;;;;17.53;9.10;;;0.70;99.90;;;;;;5040726;28;20201;-88
2024/01/15 07:58:38;;;;;;;14.97;8.57;;;0.70;99.90;;;;;;5038675;28;20191;-86
2024/01/15 08:01:25;;;;;;;15.13;8.80;;;0.80;99.90;;;;;;5053986;28;20295;-88
2024/01/15 08:04:13;;;;;;;13.67;8.40;;;0.80;99.90;;;;;;5053292;28;20234;-88
2024/01/15 08:07:01;;;;;;;16.17;8.73;;;0.80;99.90;;;;;;5039748;28;20187;-88
2024/01/15 08:09:48;;;;;;;14.90;7.50;;;0.90;99.90;;;;;;5039434;28;20707;-89
2024/01/15 08:12:36;;;;;;;13.60;8.00;;;0.90;99.90;;;;;;5039617;28;20222;-88
2024/01/15 08:15:25;;;;;;;15.13;8.27;;;0.90;99.90;;;;;;5052910;28;20569;-87
2024/01/15 08:18:17;;;;;;;15.07;8.27;;;0.90;99.90;;;;;;5053649;28;20618;-87
2024/01/15 08:21:05;;;;;;;15.10;8.33;;;0.80;99.90;;;;;;5052971;28;20572;-88
2024/01/15 08:23:52;;;;;;;13.83;7.43;;;0.70;99.90;;;;;;5038910;28;20226;-88
2024/01/15 08:26:40;;;;;;;12.97;7.97;;;0.80;99.90;;;;;;5052246;28;20222;-86
2024/01/15 08:29:28;;;;;;;14.57;7.97;;;0.80;99.90;;;;;;5038939;28;20193;-88
2024/01/15 08:32:17;;;;;;;14.27;7.53;;;0.80;99.90;;;;;;5039914;28;20278;-87
2024/01/15 08:35:04;;;;;;;13.43;8.00;;;0.90;99.90;;;;;;5052964;28;20286;-88
2024/01/15 08:37:52;;;;;;;14.33;7.73;;;0.90;99.90;;;;;;5053030;28;20228;-86
2024/01/15 08:40:40;;;;;;;12.47;7.03;;;0.90;99.90;;;;;;5039165;28;20261;-90
2024/01/15 08:43:28;;;;;;;15.00;8.47;;;1.00;99.90;;;;;;5037736;28;20655;-88
2024/01/15 08:46:15;;;;;;;15.50;8.23;;;1.00;99.90;;;;;;5052574;28;20703;-89
2024/01/15 08:49:03;;;;;;;15.80;8.17;;;1.10;99.90;;;;;;5053626;28;20413;-87
2024/01/15 08:51:52;;;;;;;16.30;8.47;;;1.10;99.90;;;;;;5046826;28;20191;-83
2024/01/15 08:54:39;;;;;;;17.07;8.47;;;1.00;99.90;;;;;;5025641;28;20199;-87
2024/01/15 08:57:27;;;;;;;14.97;8.20;;;0.90;99.90;;;;;;5052639;28;20226;-88
2024/01/15 09:00:15;;;;;;;17.13;9.07;;;0.80;99.90;;;;;;5053543;28;20336;-89
2024/01/15 09:03:03;;;;;;;15.57;9.00;;;0.70;99.90;;;;;;5052339;28;20200;-88
2024/01/15 09:05:51;;;;;;;14.50;8.20;;;0.70;99.90;;;;;;5031797;28;20293;-88
2024/01/15 09:08:38;;;;;;;17.33;9.13;;;0.80;99.90;;;;;;5018289;28;20198;-88
2024/01/15 09:11:41;;;;;;;14.73;8.70;;;0.80;99.90;;;;;;5032565;28;20276;-88
2024/01/15 09:14:45;;;;;;;15.07;8.33;;;1.00;99.90;;;;;;5020894;28;20567;-88
2024/01/15 09:17:32;;;;;;;15.57;7.80;;;1.20;99.90;;;;;;5031296;28;20203;-89
2024/01/15 09:20:21;;;;;;;12.77;7.43;;;1.20;99.90;;;;;;5032288;28;20580;-89
2024/01/15 09:23:08;;;;;;;13.87;7.10;;;1.30;99.90;;;;;;5018047;28;20490;-88
2024/01/15 09:25:57;;;;;;;11.40;6.83;;;1.40;99.90;;;;;;5017750;28;20307;-88
2024/01/15 09:28:58;;;;;;;11.30;6.50;;;1.50;99.90;;;;;;5033370;28;20875;-89
2024/01/15 09:31:50;;;;;;;10.37;6.27;;;1.60;99.90;;;;;;5036953;28;20749;-87
2024/01/15 09:34:37;;;;;;;13.03;6.67;;;1.60;99.90;;;;;;5021720;28;20198;-85
2024/01/15 09:37:31;;;;;;;10.07;6.07;;;1.70;99.90;;;;;;5021749;28;20192;-88
2024/01/15 09:40:33;;;;;;;13.33;5.63;;;1.70;99.90;;;;;;5036099;28;20197;-88
2024/01/15 09:43:21;;;;;;;12.33;5.20;;;1.60;99.90;;;;;;5036075;28;20198;-88
2024/01/15 09:46:16;;;;;;;8.70;5.00;;;1.60;99.90;;;;;;5022257;28;20202;-88
2024/01/15 09:49:05;;;;;;;15.00;5.57;;;1.70;99.90;;;;;;5021237;28;20220;-91
2024/01/15 09:52:01;;;;;;;9.90;5.37;;;1.70;99.90;;;;;;5025061;28;20210;-91
2024/01/15 09:55:00;;;;;;;10.40;5.00;;;1.70;99.90;;;;;;5025340;28;20297;-90
2024/01/15 09:57:51;;;;;;;10.77;5.20;;;1.70;99.90;;;;;;5036331;28;20225;-89
2024/01/15 10:00:45;;;;;;;7.30;4.40;;;1.70;99.90;;;;;;5022497;28;20778;-88
2024/01/15 10:03:33;;;;;;;8.03;4.63;;;1.80;99.90;;;;;;5037866;28;20215;-84
2024/01/15 10:06:29;;;;;;;8.33;4.67;;;1.70;99.90;;;;;;5055170;28;20198;-88
2024/01/15 10:09:36;;;;;;;9.10;4.73;;;1.70;99.90;;;;;;5058024;28;20226;-89
2024/01/15 10:12:27;;;;;;;9.60;4.60;;;1.70;99.90;;;;;;5057390;28;20232;-89
2024/01/15 10:15:17;;;;;;;8.67;4.57;;;1.70;99.90;;;;;;5056214;28;20194;-89
2024/01/15 10:18:17;;;;;;;8.53;4.30;;;1.80;99.90;;;;;;5054986;28;20200;-89
2024/01/15 10:22:39;;;;;;;8.03;4.30;;;1.80;99.90;;;;;;5051832;28;20574;-88
2024/01/15 10:25:43;;;;;;;11.17;4.10;;;1.90;99.90;;;;;;4934674;29;20231;-87
2024/01/15 10:28:33;;;;;;;10.13;4.20;;;1.90;99.90;;;;;;4935209;29;20210;-86
2024/01/15 10:31:23;;;;;;;10.57;4.63;;;1.80;99.90;;;;;;4935462;29;20209;-86
2024/01/15 10:34:33;;;;;;;7.43;4.23;;;1.90;99.90;;;;;;4935374;29;20199;-86
2024/01/15 10:37:24;;;;;;;8.13;4.30;;;1.90;99.90;;;;;;4922403;29;20202;-88
2024/01/15 10:40:15;;;;;;;8.57;4.33;;;1.80;99.90;;;;;;4936249;28;20337;-87
2024/01/15 10:43:06;;;;;;;8.83;4.53;;;1.80;99.90;;;;;;4936066;28;20332;-88
2024/01/15 10:45:53;;;;;;;9.23;4.40;;;1.80;99.90;;;;;;4922628;29;20232;-86
2024/01/15 10:48:41;;;;;;;8.10;4.37;;;1.80;99.90;;;;;;4935154;29;20222;-87
2024/01/15 10:51:29;;;;;;;8.87;4.70;;;1.80;99.90;;;;;;4934614;29;20195;-86
2024/01/15 10:54:25;;;;;;;8.70;4.50;;;1.80;99.90;;;;;;4935592;29;20210;-86
2024/01/15 10:57:25;;;;;;;10.03;4.83;;;1.90;99.90;;;;;;4969522;28;20245;-86
2024/01/15 11:00:25;;;;;;;10.13;4.63;;;2.00;99.90;;;;;;4965143;28;20197;-88
2024/01/15 11:03:13;;;;;;;8.27;4.43;;;2.00;99.90;;;;;;5037290;28;20202;-89
2024/01/15 11:06:38;;;;;;;7.93;4.60;;;1.90;99.90;;;;;;5042405;28;20281;-89
2024/01/15 11:09:50;;;;;;;11.63;5.00;;;1.90;99.90;;;;;;5042679;28;20198;-88
2024/01/15 11:12:42;;;;;;;11.13;5.00;;;1.90;99.90;;;;;;5053605;28;20213;-87
2024/01/15 11:15:31;;;;;;;10.30;5.13;;;1.90;99.90;;;;;;5038936;28;20195;-85
2024/01/15 11:18:18;;;;;;;9.83;5.20;;;1.80;99.90;;;;;;5054563;28;20207;-87
2024/01/15 11:21:27;;;;;;;8.63;5.10;;;1.80;99.90;;;;;;5053501;28;20203;-90
2024/01/15 11:24:38;;;;;;;10.67;5.37;;;1.80;99.90;;;;;;5053074;28;20203;-87
2024/01/15 11:27:51;;;;;;;14.47;5.60;;;1.80;99.90;;;;;;5053674;28;20206;-86
2024/01/15 11:30:39;;;;;;;8.77;5.07;;;1.80;99.90;;;;;;5055431;28;20204;-86
2024/01/15 11:33:33;;;;;;;10.53;5.40;;;1.80;99.90;;;;;;5054417;28;20186;-86
2024/01/15 11:36:50;;;;;;;13.33;5.50;;;1.80;99.90;;;;;;5053116;28;20222;-86
2024/01/15 11:39:44;;;;;;;10.20;5.20;;;1.80;99.90;;;;;;5053271;28;20276;-87
2024/01/15 11:42:38;;;;;;;14.03;5.57;;;1.80;99.90;;;;;;5053417;28;20218;-87
2024/01/15 11:45:27;;;;;;;11.07;5.43;;;1.90;99.90;;;;;;5052940;28;20246;-87
2024/01/15 11:48:16;;;;;;;11.37;6.00;;;1.80;99.90;;;;;;5054275;28;20201;-87
2024/01/15 11:51:07;;;;;;;10.20;5.47;;;1.70;99.90;;;;;;5053750;28;20628;-90
2024/01/15 11:54:09;;;;;;;11.47;5.80;;;1.70;99.90;;;;;;5053463;28;20625;-87
2024/01/15 11:57:02;;;;;;;10.77;5.90;;;1.60;99.90;;;;;;5053776;28;20307;-89
2024/01/15 11:59:49;;;;;;;12.87;5.60;;;1.60;99.90;;;;;;5054639;28;20199;-87
2024/01/15 12:02:44;;;;;;;12.93;6.13;;;1.50;99.90;;;;;;5052789;28;20670;-88
2024/01/15 12:05:46;;;;;;;12.70;5.93;;;1.60;99.90;;;;;;5052992;28;20244;-87
2024/01/15 12:08:34;;;;;;;11.13;5.67;;;1.80;99.90;;;;;;5053096;28;20649;-86
2024/01/15 12:11:25;;;;;;;11.20;5.67;;;1.90;99.90;;;;;;5051703;28;20671;-89
2024/01/15 12:14:22;;;;;;;10.80;5.87;;;1.80;99.90;;;;;;5039481;28;20671;-88
2024/01/15 12:17:21;;;;;;;12.93;5.37;;;1.70;99.90;;;;;;5039034;28;20268;-89
2024/01/15 12:20:13;;;;;;;15.07;6.27;;;1.60;99.90;;;;;;5052937;28;20199;-89
2024/01/15 12:23:03;;;;;;;11.03;6.23;;;1.60;99.90;;;;;;5052824;28;20200;-89
2024/01/15 12:25:54;;;;;;;14.67;6.30;;;1.50;99.90;;;;;;5038572;28;20222;-88
2024/01/15 12:28:42;;;;;;;11.63;5.90;;;1.50;99.90;;;;;;5037954;28;20611;-88
2024/01/15 12:31:40;;;;;;;12.03;6.47;;;1.60;99.90;;;;;;5052695;28;20332;-89
2024/01/15 12:34:32;;;;;;;12.07;6.43;;;1.50;99.90;;;;;;5056969;28;20281;-89
2024/01/15 12:37:29;;;;;;;12.90;6.13;;;1.30;99.90;;;;;;5047392;28;20202;-86
2024/01/15 12:40:20;;;;;;;13.93;6.47;;;1.20;99.90;;;;;;5045564;28;20270;-87
2024/01/15 12:43:07;;;;;;;15.07;7.00;;;1.10;99.90;;;;;;5061431;28;20240;-88
2024/01/15 12:45:55;;;;;;;13.63;6.53;;;1.10;99.90;;;;;;5059051;28;20697;-87
2024/01/15 12:48:52;;;;;;;15.20;6.93;;;1.00;99.90;;;;;;5061160;28;20561;-87
2024/01/15 12:51:40;;;;;;;12.33;6.53;;;1.00;99.90;;;;;;5052402;28;20233;-88
2024/01/15 12:54:28;;;;;;;11.90;6.67;;;0.90;99.90;;;;;;5054338;28;20191;-89
2024/01/15 12:57:19;;;;;;;13.00;6.50;;;1.10;99.90;;;;;;5045275;28;20214;-88
2024/01/15 13:00:22;;;;;;;13.33;6.37;;;1.10;99.90;;;;;;5059794;28;20196;-88
2024/01/15 13:03:10;;;;;;;12.10;6.23;;;1.10;99.90;;;;;;5046127;28;20218;-89
2024/01/15 13:05:58;;;;;;;12.77;6.17;;;1.20;99.90;;;;;;5055681;28;20219;-86
2024/01/15 13:08:47;;;;;;;12.40;5.90;;;1.20;99.90;;;;;;5056632;28;20222;-87
2024/01/15 13:11:35;;;;;;;11.83;6.20;;;1.10;99.90;;;;;;5040912;28;20671;-91
2024/01/15 13:14:27;;;;;;;12.07;6.13;;;0.90;99.90;;;;;;5041562;28;20309;-87
2024/01/15 13:17:15;;;;;;;11.90;6.37;;;0.70;99.90;;;;;;5053996;28;20384;-88
2024/01/15 13:20:04;;;;;;;15.97;7.53;;;0.50;99.90;;;;;;5038427;28;20197;-87
2024/01/15 13:22:51;;;;;;;14.27;6.70;;;0.50;99.90;;;;;;5038474;28;20201;-91
2024/01/15 13:25:40;;;;;;;13.83;6.60;;;0.40;99.90;;;;;;5038174;28;20286;-90
2024/01/15 13:28:27;;;;;;;16.80;7.60;;;0.50;99.90;;;;;;5039150;28;20201;-86
2024/01/15 13:31:22;;;;;;;18.50;7.13;;;0.50;99.90;;;;;;5052918;28;20187;-87
2024/01/15 13:34:13;;;;;;;16.40;6.60;;;0.60;99.90;;;;;;5051412;28;20255;-85
2024/01/15 13:37:04;;;;;;;11.80;6.37;;;0.70;99.90;;;;;;5024690;28;20203;-87
2024/01/15 13:39:52;;;;;;;11.87;5.80;;;0.80;99.90;;;;;;5054821;28;20650;-87
2024/01/15 13:42:40;;;;;;;14.90;6.57;;;0.80;99.90;;;;;;5037953;28;20212;-83
2024/01/15 13:45:29;;;;;;;14.07;6.90;;;0.90;99.90;;;;;;5036892;28;20225;-82
2024/01/15 13:48:20;;;;;;;16.30;6.53;;;0.90;99.90;;;;;;5038021;28;20222;-80
2024/01/15 13:51:12;;;;;;;17.30;6.47;;;0.90;99.90;;;;;;5053602;28;20586;-81
2024/01/15 13:54:04;;;;;;;13.30;6.53;;;1.00;99.90;;;;;;5052154;28;20246;-80
2024/01/15 13:56:51;;;;;;;17.57;6.83;;;0.90;99.90;;;;;;5052281;28;20219;-82
2024/01/15 13:59:39;;;;;;;14.37;6.60;;;0.90;99.90;;;;;;5040854;28;20280;-81
2024/01/15 14:02:27;;;;;;;16.50;6.73;;;0.80;99.90;;;;;;5052732;28;20687;-81
2024/01/15 14:05:16;;;;;;;14.93;7.23;;;0.80;99.90;;;;;;5051921;28;20291;-83
2024/01/15 14:08:03;;;;;;;14.20;6.87;;;0.80;99.90;;;;;;5038440;28;20233;-82
2024/01/15 14:10:51;;;;;;;14.97;6.20;;;0.80;99.90;;;;;;5053850;28;20226;-82
2024/01/15 14:13:39;;;;;;;15.20;6.77;;;0.80;99.90;;;;;;5040742;28;20202;-83
2024/01/15 14:16:29;;;;;;;16.73;7.00;;;0.80;99.90;;;;;;5057043;28;20221;-85
2024/01/15 14:19:18;;;;;;;17.93;6.77;;;0.80;99.90;;;;;;5056764;28;20202;-83
2024/01/15 14:22:09;;;;;;;14.53;6.53;;;0.80;99.90;;;;;;5056456;28;20280;-83
2024/01/15 14:24:57;;;;;;;13.40;5.93;;;0.80;99.90;;;;;;5056620;28;20207;-85
2024/01/15 14:27:45;;;;;;;15.07;6.50;;;0.80;99.90;;;;;;5055014;28;20221;-85
2024/01/15 14:30:32;;;;;;;15.90;6.93;;;0.70;99.90;;;;;;5041290;28;20661;-83
2024/01/15 14:33:20;;;;;;;16.53;6.47;;;0.80;99.90;;;;;;5041466;28;20759;-84
2024/01/15 14:36:08;;;;;;;15.03;6.57;;;0.70;99.90;;;;;;5056498;28;20222;-80
2024/01/15 14:38:55;;;;;;;11.93;6.37;;;0.70;99.90;;;;;;5056236;28;20202;-78
2024/01/15 14:41:46;;;;;;;13.13;6.20;;;0.70;99.90;;;;;;5056187;28;20230;-80
2024/01/15 14:44:34;;;;;;;14.33;5.97;;;0.70;99.90;;;;;;5054624;28;20671;-79
2024/01/15 14:47:23;;;;;;;14.93;6.40;;;0.70;99.90;;;;;;5041538;28;20198;-79
2024/01/15 14:50:12;;;;;;;18.53;7.00;;;0.70;99.90;;;;;;5054593;28;20221;-78
2024/01/15 14:53:02;;;;;;;15.20;6.83;;;0.70;99.90;;;;;;5054626;28;20187;-78